Time;durP1;ratioP1;P1;durP2;ratioP2;P2;SDS_P1;SDS_P2;PMS_P1;PMS_P2;Temp;Humidity;BMP_temperature;BMP_pressure;BME280_temperature;BME280_humidity;BME280_pressure;Samples;Min_cycle;Max_cycle;Signal;HPM_P1;HPM_P2
2024/02/02 00:00:31;;;;;;;11.98;2.72;;;;;;;;;;5000368;28;20026;-78
2024/02/02 00:02:56;;;;;;;17.88;2.42;;;;;;;;;;4997395;28;20440;-77
2024/02/02 00:05:23;;;;;;;13.90;2.25;;;;;;;;;;4997691;28;20030;-77
2024/02/02 00:07:50;;;;;;;19.90;2.50;;;;;;;;;;4996512;28;20053;-78
2024/02/02 00:10:28;;;;;;;21.55;3.15;;;;;;;;;;4963550;28;20516;-77
2024/02/02 00:12:55;;;;;;;16.95;2.97;;;;;;;;;;4994381;28;20046;-78
2024/02/02 00:15:23;;;;;;;15.70;2.72;;;;;;;;;;4997871;28;20034;-78
2024/02/02 00:17:53;;;;;;;16.55;2.70;;;;;;;;;;4997144;28;20374;-78
2024/02/02 00:20:26;;;;;;;19.67;2.92;;;;;;;;;;4994859;28;20386;-79
2024/02/02 00:22:54;;;;;;;17.70;2.63;;;;;;;;;;4994294;28;20037;-78
2024/02/02 00:25:23;;;;;;;25.52;3.17;;;;;;;;;;4995018;28;20030;-78
2024/02/02 00:27:55;;;;;;;;;;;;;;;;;;4962867;28;20038;-79
2024/02/02 00:30:22;;;;;;;22.50;3.10;;;;;;;;;;4994194;28;19914;-78
2024/02/02 00:32:56;;;;;;;15.50;2.70;;;;;;;;;;4962431;28;20026;-79
2024/02/02 00:35:23;;;;;;;24.55;2.60;;;;;;;;;;4978088;28;20045;-78
2024/02/02 00:37:55;;;;;;;19.85;4.28;;;;;;;;;;4973902;28;20030;-79
2024/02/02 00:40:24;;;;;;;19.25;3.65;;;;;;;;;;4974156;28;20035;-79
2024/02/02 00:42:50;;;;;;;19.05;2.80;;;;;;;;;;4976073;28;20035;-79
2024/02/02 00:45:21;;;;;;;16.92;3.00;;;;;;;;;;4959538;28;20026;-77
2024/02/02 00:47:53;;;;;;;15.52;2.80;;;;;;;;;;4987301;28;20100;-79
2024/02/02 00:50:26;;;;;;;16.43;2.40;;;;;;;;;;4982434;28;20046;-79
2024/02/02 00:52:55;;;;;;;;;;;;;;;;;;4984884;28;20281;-79
2024/02/02 00:55:21;;;;;;;22.20;2.83;;;;;;;;;;5018519;28;19902;-79
2024/02/02 00:57:47;;;;;;;18.65;4.13;;;;;;;;;;5017957;28;20041;-79
2024/02/02 01:00:14;;;;;;;16.13;2.55;;;;;;;;;;5018473;28;20065;-79
2024/02/02 01:02:40;;;;;;;15.82;2.65;;;;;;;;;;4984959;28;20038;-78
2024/02/02 01:05:09;;;;;;;16.40;2.80;;;;;;;;;;4997975;28;20014;-77
2024/02/02 01:07:35;;;;;;;18.05;2.80;;;;;;;;;;5017781;28;20105;-78
2024/02/02 01:10:06;;;;;;;14.45;2.55;;;;;;;;;;5009483;28;20034;-79
2024/02/02 01:12:35;;;;;;;22.63;3.30;;;;;;;;;;4975940;28;20034;-78
2024/02/02 01:15:03;;;;;;;15.83;3.10;;;;;;;;;;4958504;28;20049;-78
2024/02/02 01:17:29;;;;;;;14.73;2.88;;;;;;;;;;4989192;28;20019;-79
2024/02/02 01:19:55;;;;;;;23.63;2.95;;;;;;;;;;4993309;28;20397;-80
2024/02/02 01:22:23;;;;;;;17.60;2.55;;;;;;;;;;4963716;28;20049;-79
2024/02/02 01:24:49;;;;;;;11.55;2.20;;;;;;;;;;4996770;28;20030;-79
2024/02/02 01:27:20;;;;;;;22.25;2.83;;;;;;;;;;4996260;28;20445;-79
2024/02/02 01:29:48;;;;;;;18.52;2.15;;;;;;;;;;4996867;28;20568;-79
2024/02/02 01:32:14;;;;;;;17.90;2.58;;;;;;;;;;4997307;28;20034;-79
2024/02/02 01:34:41;;;;;;;13.88;2.45;;;;;;;;;;4998752;28;20026;-79
2024/02/02 01:37:06;;;;;;;25.10;2.95;;;;;;;;;;5003092;28;20030;-79
2024/02/02 01:39:34;;;;;;;11.13;2.58;;;;;;;;;;4998687;28;20434;-78
2024/02/02 01:42:04;;;;;;;15.63;3.03;;;;;;;;;;4980894;28;20053;-78
2024/02/02 01:44:36;;;;;;;14.07;2.53;;;;;;;;;;4997411;28;20022;-78
2024/02/02 01:47:02;;;;;;;24.83;3.35;;;;;;;;;;4997945;28;20034;-78
2024/02/02 01:49:30;;;;;;;19.63;3.33;;;;;;;;;;4998746;28;20034;-78
2024/02/02 01:51:57;;;;;;;13.27;3.00;;;;;;;;;;4999873;28;20030;-79
2024/02/02 01:54:23;;;;;;;19.05;3.30;;;;;;;;;;4982138;28;20034;-78
2024/02/02 01:56:54;;;;;;;16.30;3.20;;;;;;;;;;4999246;28;20027;-77
2024/02/02 01:59:21;;;;;;;17.98;2.80;;;;;;;;;;4997937;28;20047;-78
2024/02/02 02:01:47;;;;;;;19.15;3.45;;;;;;;;;;5007151;28;20058;-78
2024/02/02 02:04:13;;;;;;;17.58;3.45;;;;;;;;;;5008360;28;20109;-78
2024/02/02 02:06:47;;;;;;;11.20;3.13;;;;;;;;;;4982957;28;20486;-78
2024/02/02 02:09:12;;;;;;;22.67;5.22;;;;;;;;;;5000500;28;20498;-78
2024/02/02 02:11:42;;;;;;;16.05;3.63;;;;;;;;;;5000048;28;20022;-77
2024/02/02 02:14:09;;;;;;;18.50;3.70;;;;;;;;;;4998519;28;20022;-77
2024/02/02 02:16:42;;;;;;;23.50;4.03;;;;;;;;;;4998366;28;20054;-78
2024/02/02 02:19:12;;;;;;;19.27;3.65;;;;;;;;;;4983317;28;20493;-78
2024/02/02 02:21:42;;;;;;;18.17;3.13;;;;;;;;;;4982518;28;20691;-77
2024/02/02 02:24:10;;;;;;;16.52;3.53;;;;;;;;;;4982195;28;20046;-78
2024/02/02 02:26:39;;;;;;;17.55;3.33;;;;;;;;;;4997716;28;20530;-77
2024/02/02 02:29:05;;;;;;;17.77;3.60;;;;;;;;;;4996271;28;20044;-78
2024/02/02 02:31:32;;;;;;;16.58;3.55;;;;;;;;;;4982017;28;20548;-77
2024/02/02 02:33:57;;;;;;;19.10;3.58;;;;;;;;;;4981955;28;20034;-78
2024/02/02 02:36:23;;;;;;;22.77;3.78;;;;;;;;;;4998079;28;20026;-77
2024/02/02 02:38:51;;;;;;;15.82;4.78;;;;;;;;;;4980816;28;20034;-78
2024/02/02 02:41:20;;;;;;;15.23;4.20;;;;;;;;;;4997717;28;20034;-78
2024/02/02 02:43:46;;;;;;;15.65;3.58;;;;;;;;;;4999388;28;20026;-77
2024/02/02 02:46:11;;;;;;;12.05;3.05;;;;;;;;;;4999353;28;20022;-78
2024/02/02 02:48:44;;;;;;;15.93;3.63;;;;;;;;;;4998978;28;20026;-77
2024/02/02 02:51:12;;;;;;;13.68;3.58;;;;;;;;;;4965762;28;20042;-78
2024/02/02 02:53:38;;;;;;;18.90;4.10;;;;;;;;;;4949694;28;20042;-78
2024/02/02 02:56:08;;;;;;;15.10;3.92;;;;;;;;;;4980950;28;20046;-78
2024/02/02 02:58:33;;;;;;;23.23;4.75;;;;;;;;;;4979993;28;20520;-78
2024/02/02 03:00:59;;;;;;;19.40;4.25;;;;;;;;;;4997536;28;20038;-77
2024/02/02 03:03:26;;;;;;;21.00;4.25;;;;;;;;;;4996250;28;20516;-78
2024/02/02 03:05:51;;;;;;;18.58;4.05;;;;;;;;;;4997155;28;20088;-77
2024/02/02 03:08:18;;;;;;;19.05;4.45;;;;;;;;;;4979942;28;20099;-77
2024/02/02 03:10:51;;;;;;;19.45;4.05;;;;;;;;;;4964934;28;20038;-78
2024/02/02 03:13:20;;;;;;;20.98;4.45;;;;;;;;;;4997116;28;20153;-78
2024/02/02 03:15:46;;;;;;;21.05;4.45;;;;;;;;;;4981832;28;20081;-77
2024/02/02 03:18:14;;;;;;;18.98;4.03;;;;;;;;;;4981621;28;20046;-79
2024/02/02 03:20:39;;;;;;;20.70;4.00;;;;;;;;;;4985686;28;20049;-77
2024/02/02 03:23:05;;;;;;;22.77;4.78;;;;;;;;;;4997822;28;20035;-79
2024/02/02 03:25:30;;;;;;;21.48;5.05;;;;;;;;;;4997585;28;20054;-78
2024/02/02 03:27:56;;;;;;;18.33;4.32;;;;;;;;;;4981725;28;20066;-78
2024/02/02 03:30:21;;;;;;;22.17;4.90;;;;;;;;;;4994736;28;20026;-77
2024/02/02 03:32:48;;;;;;;24.73;6.53;;;;;;;;;;4996739;28;20036;-78
2024/02/02 03:35:14;;;;;;;15.35;4.05;;;;;;;;;;4983723;28;20030;-79
2024/02/02 03:37:40;;;;;;;16.80;4.53;;;;;;;;;;5004209;28;20030;-79
2024/02/02 03:40:06;;;;;;;17.75;4.68;;;;;;;;;;5018346;28;20030;-78
2024/02/02 03:42:32;;;;;;;14.90;4.13;;;;;;;;;;5002864;28;20046;-78
2024/02/02 03:45:11;;;;;;;18.60;4.57;;;;;;;;;;5019273;28;20070;-78
2024/02/02 03:48:03;;;;;;;13.98;4.85;;;;;;;;;;5019056;28;20019;-78
2024/02/02 03:51:15;;;;;;;19.67;4.72;;;;;;;;;;5004258;28;20073;-78
2024/02/02 03:54:27;;;;;;;17.02;5.00;;;;;;;;;;5006524;23;20073;-77
2024/02/02 03:57:01;;;;;;;17.90;4.43;;;;;;;;;;4979448;28;20038;-78
2024/02/02 03:59:27;;;;;;;23.25;4.75;;;;;;;;;;4980380;28;20044;-78
2024/02/02 04:01:57;;;;;;;18.92;5.05;;;;;;;;;;4996875;28;20034;-78
2024/02/02 04:04:29;;;;;;;19.65;5.00;;;;;;;;;;4983261;28;20038;-78
2024/02/02 04:06:55;;;;;;;21.60;5.15;;;;;;;;;;4976022;28;20037;-78
2024/02/02 04:09:21;;;;;;;18.85;4.10;;;;;;;;;;4977205;28;20372;-77
2024/02/02 04:11:47;;;;;;;26.48;5.97;;;;;;;;;;4977715;28;20035;-78
2024/02/02 04:14:12;;;;;;;20.02;4.40;;;;;;;;;;4980281;28;20110;-78
2024/02/02 04:16:39;;;;;;;17.77;3.67;;;;;;;;;;4950673;28;20113;-78
2024/02/02 04:19:05;;;;;;;16.90;4.68;;;;;;;;;;4988197;28;20030;-79
2024/02/02 04:21:32;;;;;;;11.77;4.25;;;;;;;;;;4989023;28;20034;-78
2024/02/02 04:24:00;;;;;;;23.80;4.05;;;;;;;;;;4988097;28;20066;-78
2024/02/02 04:26:25;;;;;;;17.92;4.15;;;;;;;;;;4960917;28;20043;-77
2024/02/02 04:28:56;;;;;;;24.90;4.78;;;;;;;;;;4959852;28;20376;-77
2024/02/02 04:31:21;;;;;;;18.55;4.50;;;;;;;;;;4976627;28;20033;-77
2024/02/02 04:33:52;;;;;;;15.82;4.13;;;;;;;;;;4975169;28;20043;-78
2024/02/02 04:36:25;;;;;;;18.35;4.47;;;;;;;;;;4976452;28;20498;-77
2024/02/02 04:38:52;;;;;;;21.50;4.78;;;;;;;;;;4975360;28;20046;-80
2024/02/02 04:41:31;;;;;;;14.80;4.35;;;;;;;;;;4975877;28;20035;-78
2024/02/02 04:43:58;;;;;;;16.35;4.22;;;;;;;;;;4984831;28;20066;-79
2024/02/02 04:46:28;;;;;;;17.20;4.55;;;;;;;;;;4994185;28;20042;-78
2024/02/02 04:48:54;;;;;;;20.73;4.63;;;;;;;;;;4991771;28;20043;-78
2024/02/02 04:51:21;;;;;;;15.82;4.78;;;;;;;;;;4967790;28;20364;-77
2024/02/02 04:53:49;;;;;;;26.52;5.40;;;;;;;;;;4956710;28;20043;-79
2024/02/02 04:56:15;;;;;;;16.63;4.68;;;;;;;;;;4938739;29;20036;-77
2024/02/02 04:58:41;;;;;;;20.73;5.07;;;;;;;;;;4956107;28;20042;-78
2024/02/02 05:01:10;;;;;;;22.45;4.75;;;;;;;;;;4939489;29;20047;-78
2024/02/02 05:03:39;;;;;;;20.50;4.85;;;;;;;;;;4955106;28;20479;-79
2024/02/02 05:06:12;;;;;;;20.83;5.30;;;;;;;;;;4938591;29;20466;-77
2024/02/02 05:08:39;;;;;;;21.38;5.35;;;;;;;;;;4955026;28;20039;-78
2024/02/02 05:11:05;;;;;;;16.98;5.50;;;;;;;;;;4959793;29;20059;-78
2024/02/02 05:13:33;;;;;;;19.30;5.00;;;;;;;;;;4959331;29;20058;-78
2024/02/02 05:16:08;;;;;;;13.88;4.78;;;;;;;;;;4959896;29;20038;-78
2024/02/02 05:18:34;;;;;;;19.35;5.60;;;;;;;;;;4971997;28;20066;-78
2024/02/02 05:21:00;;;;;;;13.45;4.63;;;;;;;;;;4979413;28;20050;-77
2024/02/02 05:23:26;;;;;;;17.27;5.45;;;;;;;;;;4962166;28;20042;-79
2024/02/02 05:25:51;;;;;;;18.65;5.00;;;;;;;;;;4979168;28;20057;-79
2024/02/02 05:28:19;;;;;;;20.08;5.47;;;;;;;;;;4978562;28;20042;-79
2024/02/02 05:30:55;;;;;;;15.75;5.40;;;;;;;;;;4980307;28;20035;-78
2024/02/02 05:33:22;;;;;;;15.23;5.40;;;;;;;;;;4977746;28;20047;-78
2024/02/02 05:35:51;;;;;;;18.38;5.47;;;;;;;;;;4978450;28;20034;-79
2024/02/02 05:38:43;;;;;;;25.15;5.35;;;;;;;;;;4979038;28;20033;-78
2024/02/02 05:41:11;;;;;;;17.85;5.50;;;;;;;;;;4980074;28;20039;-77
2024/02/02 05:43:37;;;;;;;19.13;5.47;;;;;;;;;;4980362;28;20471;-77
2024/02/02 05:46:06;;;;;;;28.27;6.93;;;;;;;;;;4979657;28;20161;-79
2024/02/02 05:48:39;;;;;;;23.83;6.63;;;;;;;;;;4936211;28;20141;-79
2024/02/02 05:51:07;;;;;;;30.65;5.63;;;;;;;;;;4975985;28;20403;-79
2024/02/02 05:53:33;;;;;;;18.17;6.28;;;;;;;;;;4960503;28;20032;-80
2024/02/02 05:55:58;;;;;;;22.58;6.68;;;;;;;;;;4958800;28;20034;-79
2024/02/02 05:58:32;;;;;;;29.42;6.38;;;;;;;;;;4961393;28;20082;-78
2024/02/02 06:01:04;;;;;;;20.15;5.78;;;;;;;;;;4946068;28;20145;-79
2024/02/02 06:03:31;;;;;;;28.08;7.28;;;;;;;;;;4979456;28;20058;-79
2024/02/02 06:05:59;;;;;;;21.73;6.10;;;;;;;;;;4980016;28;20027;-78
2024/02/02 06:08:28;;;;;;;22.10;6.47;;;;;;;;;;4977260;28;20094;-79
2024/02/02 06:10:58;;;;;;;20.42;6.20;;;;;;;;;;4978822;28;20561;-78
2024/02/02 06:13:24;;;;;;;17.60;5.60;;;;;;;;;;4961215;28;20051;-79
2024/02/02 06:15:49;;;;;;;21.80;6.53;;;;;;;;;;4979616;28;20062;-77
2024/02/02 06:18:19;;;;;;;27.73;6.97;;;;;;;;;;4980130;28;20023;-78
2024/02/02 06:20:49;;;;;;;17.17;6.25;;;;;;;;;;4981647;28;20038;-79
2024/02/02 06:23:23;;;;;;;18.77;6.35;;;;;;;;;;4970525;28;20049;-78
2024/02/02 06:25:52;;;;;;;25.00;7.32;;;;;;;;;;4990271;28;20102;-78
2024/02/02 06:28:18;;;;;;;27.70;6.65;;;;;;;;;;4997648;28;20046;-79
2024/02/02 06:30:48;;;;;;;28.75;6.53;;;;;;;;;;4999728;28;20119;-79
2024/02/02 06:33:15;;;;;;;27.50;6.68;;;;;;;;;;5000267;28;20074;-79
2024/02/02 06:35:42;;;;;;;16.17;6.80;;;;;;;;;;5000455;28;20022;-79
2024/02/02 06:38:11;;;;;;;28.85;7.45;;;;;;;;;;4983674;28;20027;-78
2024/02/02 06:40:39;;;;;;;17.90;6.13;;;;;;;;;;4989507;28;20098;-79
2024/02/02 06:43:08;;;;;;;21.40;6.82;;;;;;;;;;4943425;29;20043;-79
2024/02/02 06:45:37;;;;;;;21.70;6.60;;;;;;;;;;4961071;29;20082;-78
2024/02/02 06:48:02;;;;;;;25.13;7.22;;;;;;;;;;4945142;29;20441;-78
2024/02/02 06:50:30;;;;;;;23.00;6.30;;;;;;;;;;4943129;29;20035;-79
2024/02/02 06:52:56;;;;;;;19.33;5.90;;;;;;;;;;4954912;28;20039;-78
2024/02/02 06:55:24;;;;;;;24.88;7.03;;;;;;;;;;4976714;28;20069;-78
2024/02/02 06:57:49;;;;;;;16.60;6.13;;;;;;;;;;4973779;28;20031;-79
2024/02/02 07:00:19;;;;;;;21.83;6.50;;;;;;;;;;4974450;28;20073;-77
2024/02/02 07:02:46;;;;;;;25.45;6.90;;;;;;;;;;4968531;28;20489;-78
2024/02/02 07:05:15;;;;;;;20.73;6.65;;;;;;;;;;4975095;28;20022;-79
2024/02/02 07:07:40;;;;;;;22.45;6.68;;;;;;;;;;4974227;28;20027;-79
2024/02/02 07:10:09;;;;;;;24.80;8.00;;;;;;;;;;4989183;28;20564;-79
2024/02/02 07:12:44;;;;;;;31.63;7.03;;;;;;;;;;4979627;28;20452;-78
2024/02/02 07:15:14;;;;;;;25.33;6.72;;;;;;;;;;4954113;28;20151;-79
2024/02/02 07:17:45;;;;;;;25.92;7.00;;;;;;;;;;4960379;28;20126;-78
2024/02/02 07:20:28;;;;;;;19.27;6.18;;;;;;;;;;4958153;29;20083;-78
2024/02/02 07:22:57;;;;;;;18.48;6.50;;;;;;;;;;4962181;28;20038;-79
2024/02/02 07:25:23;;;;;;;14.07;6.03;;;;;;;;;;4979301;28;20027;-78
2024/02/02 07:28:28;;;;;;;19.05;5.53;;;;;;;;;;4971198;28;20057;-79
2024/02/02 07:30:55;;;;;;;17.67;6.53;;;;;;;;;;4951167;28;20067;-78
2024/02/02 07:33:25;;;;;;;22.70;6.03;;;;;;;;;;4969662;28;20055;-79
2024/02/02 07:35:52;;;;;;;18.60;5.97;;;;;;;;;;4970378;28;20037;-79
2024/02/02 07:38:41;;;;;;;17.85;5.78;;;;;;;;;;4966210;28;20025;-78
2024/02/02 07:41:08;;;;;;;17.95;5.47;;;;;;;;;;4949860;28;20399;-78
2024/02/02 07:43:37;;;;;;;34.22;6.85;;;;;;;;;;4972539;28;20108;-78
2024/02/02 07:46:04;;;;;;;17.27;5.60;;;;;;;;;;4971288;28;20087;-77
2024/02/02 07:48:30;;;;;;;19.45;6.30;;;;;;;;;;4970393;28;20483;-79
2024/02/02 07:50:56;;;;;;;19.58;5.80;;;;;;;;;;4973059;28;20478;-79
2024/02/02 07:53:22;;;;;;;17.13;5.68;;;;;;;;;;4976561;28;20026;-79
2024/02/02 07:55:48;;;;;;;21.80;6.18;;;;;;;;;;4969549;28;20734;-77
2024/02/02 07:58:13;;;;;;;19.77;5.43;;;;;;;;;;4974328;28;20114;-78
2024/02/02 08:00:42;;;;;;;24.30;5.90;;;;;;;;;;4974414;28;20035;-78
2024/02/02 08:03:07;;;;;;;19.67;5.50;;;;;;;;;;4980371;28;20037;-78
2024/02/02 08:05:37;;;;;;;19.70;6.20;;;;;;;;;;4972197;28;20031;-79
2024/02/02 08:08:03;;;;;;;20.05;5.82;;;;;;;;;;4991308;28;20041;-79
2024/02/02 08:10:32;;;;;;;18.63;5.70;;;;;;;;;;4974102;28;20023;-78
2024/02/02 08:12:57;;;;;;;19.05;5.13;;;;;;;;;;4980463;28;20035;-77
2024/02/02 08:15:23;;;;;;;16.75;5.32;;;;;;;;;;4960563;28;20030;-79
2024/02/02 08:17:49;;;;;;;19.27;5.50;;;;;;;;;;4976471;28;20066;-79
2024/02/02 08:20:15;;;;;;;17.52;5.07;;;;;;;;;;4967998;28;20033;-79
2024/02/02 08:22:44;;;;;;;16.08;5.07;;;;;;;;;;4956610;28;20038;-80
2024/02/02 08:25:10;;;;;;;22.02;5.32;;;;;;;;;;4969689;28;20163;-79
2024/02/02 08:27:37;;;;;;;23.52;5.18;;;;;;;;;;4971733;28;20038;-79
2024/02/02 08:30:06;;;;;;;17.13;4.25;;;;;;;;;;4973309;28;20045;-79
2024/02/02 08:32:32;;;;;;;12.35;3.88;;;;;;;;;;4981286;28;20026;-79
2024/02/02 08:34:58;;;;;;;15.27;4.60;;;;;;;;;;4951350;28;20094;-79
2024/02/02 08:37:24;;;;;;;13.23;4.05;;;;;;;;;;4975446;28;20031;-80
2024/02/02 08:39:52;;;;;;;17.20;3.92;;;;;;;;;;4959218;28;20039;-78
2024/02/02 08:42:23;;;;;;;20.13;4.65;;;;;;;;;;4973741;28;20035;-78
2024/02/02 08:44:50;;;;;;;24.08;5.55;;;;;;;;;;4989150;28;20046;-78
2024/02/02 08:47:16;;;;;;;20.25;4.10;;;;;;;;;;4953717;28;20027;-80
2024/02/02 08:49:47;;;;;;;11.73;3.90;;;;;;;;;;4939959;29;20043;-79
2024/02/02 08:52:34;;;;;;;16.10;4.00;;;;;;;;;;4959225;28;20026;-78
2024/02/02 08:55:03;;;;;;;16.92;3.85;;;;;;;;;;4964514;28;20050;-79
2024/02/02 08:57:29;;;;;;;10.57;3.42;;;;;;;;;;4939413;28;20074;-79
2024/02/02 08:59:55;;;;;;;15.30;3.70;;;;;;;;;;4970208;28;20129;-79
2024/02/02 09:02:39;;;;;;;17.95;4.10;;;;;;;;;;4950617;28;20034;-81
2024/02/02 09:05:06;;;;;;;19.15;3.63;;;;;;;;;;4956617;28;20058;-78
2024/02/02 09:07:32;;;;;;;12.27;3.72;;;;;;;;;;4958794;28;20125;-80
2024/02/02 09:09:58;;;;;;;16.77;4.13;;;;;;;;;;4959873;28;20534;-80
2024/02/02 09:12:27;;;;;;;16.90;4.45;;;;;;;;;;4970073;28;20066;-79
2024/02/02 09:14:53;;;;;;;18.45;4.32;;;;;;;;;;4992371;28;20015;-79
2024/02/02 09:17:19;;;;;;;17.02;4.50;;;;;;;;;;4996960;28;20022;-79
2024/02/02 09:19:48;;;;;;;16.02;3.75;;;;;;;;;;4997544;28;20019;-79
2024/02/02 09:22:17;;;;;;;19.67;3.60;;;;;;;;;;4997927;28;20011;-79
2024/02/02 09:24:51;;;;;;;11.13;3.83;;;;;;;;;;4998118;28;20066;-78
2024/02/02 09:27:22;;;;;;;14.15;3.65;;;;;;;;;;4972474;28;20178;-79
2024/02/02 09:29:49;;;;;;;14.20;3.75;;;;;;;;;;4943582;28;20075;-79
2024/02/02 09:32:18;;;;;;;14.23;3.38;;;;;;;;;;4974337;28;20030;-79
2024/02/02 09:34:43;;;;;;;;;;;;;;;;;;4958386;28;20031;-79
2024/02/02 09:37:11;;;;;;;10.88;3.03;;;;;;;;;;4972812;28;19996;-78
2024/02/02 09:39:50;;;;;;;15.13;3.10;;;;;;;;;;4957616;28;20034;-79
2024/02/02 09:42:28;;;;;;;11.95;3.53;;;;;;;;;;4957734;28;20038;-78
2024/02/02 09:45:22;;;;;;;10.93;3.25;;;;;;;;;;4973918;28;20402;-79
2024/02/02 09:47:48;;;;;;;;;;;;;;;;;;4970351;28;20042;-79
2024/02/02 09:50:15;;;;;;;17.20;3.10;;;;;;;;;;4973476;28;19921;-79
2024/02/02 09:52:59;;;;;;;13.63;3.25;;;;;;;;;;4973665;28;20140;-79
2024/02/02 09:55:46;;;;;;;15.55;3.13;;;;;;;;;;4973242;28;20482;-80
2024/02/02 09:58:26;;;;;;;8.50;2.85;;;;;;;;;;4974799;28;20123;-79
2024/02/02 10:01:07;;;;;;;12.57;2.85;;;;;;;;;;4976535;28;20122;-80
2024/02/02 10:03:49;;;;;;;12.25;3.05;;;;;;;;;;4961016;28;20073;-79
2024/02/02 10:06:46;;;;;;;13.38;2.95;;;;;;;;;;4977752;28;20030;-79
2024/02/02 10:09:34;;;;;;;10.32;2.45;;;;;;;;;;4965710;28;20077;-79
2024/02/02 10:12:03;;;;;;;11.55;3.22;;;;;;;;;;4976512;28;20039;-80
2024/02/02 10:14:28;;;;;;;14.52;2.60;;;;;;;;;;4977470;28;20038;-79
2024/02/02 10:17:04;;;;;;;10.98;2.58;;;;;;;;;;4977334;28;20110;-79
2024/02/02 10:20:03;;;;;;;14.48;3.75;;;;;;;;;;4960032;28;20474;-79
2024/02/02 10:22:38;;;;;;;13.77;3.80;;;;;;;;;;4975157;28;20158;-80
2024/02/02 10:25:25;;;;;;;8.05;2.40;;;;;;;;;;4974664;28;20050;-80
2024/02/02 10:27:59;;;;;;;7.72;2.78;;;;;;;;;;4943040;28;20042;-80
2024/02/02 10:30:44;;;;;;;10.70;2.88;;;;;;;;;;4975161;28;20038;-80
2024/02/02 10:33:39;;;;;;;7.38;2.45;;;;;;;;;;4945576;28;20514;-80
2024/02/02 10:36:07;;;;;;;10.13;2.63;;;;;;;;;;4893875;28;20118;-80
2024/02/02 10:38:33;;;;;;;14.48;2.92;;;;;;;;;;4943549;28;20129;-80
2024/02/02 10:41:03;;;;;;;13.27;3.00;;;;;;;;;;4975290;28;20043;-78
2024/02/02 10:43:54;;;;;;;8.43;3.13;;;;;;;;;;4943587;28;20047;-79
2024/02/02 10:46:34;;;;;;;10.02;2.65;;;;;;;;;;4885359;29;20048;-79
2024/02/02 10:49:06;;;;;;;10.57;2.60;;;;;;;;;;4906362;29;20060;-79
2024/02/02 10:51:43;;;;;;;11.80;2.58;;;;;;;;;;4885772;29;20040;-79
2024/02/02 10:54:33;;;;;;;12.15;2.40;;;;;;;;;;4883805;29;20112;-80
2024/02/02 10:57:05;;;;;;;11.20;2.97;;;;;;;;;;4900185;29;20100;-80
2024/02/02 10:59:49;;;;;;;12.85;2.20;;;;;;;;;;4917610;29;20132;-79
2024/02/02 11:02:17;;;;;;;11.02;3.50;;;;;;;;;;4902720;29;20111;-80
2024/02/02 11:05:05;;;;;;;6.72;2.20;;;;;;;;;;4902491;29;20052;-79
2024/02/02 11:07:43;;;;;;;6.28;2.60;;;;;;;;;;4901933;29;20090;-80
2024/02/02 11:10:21;;;;;;;11.30;3.45;;;;;;;;;;4917821;29;20419;-80
2024/02/02 11:13:05;;;;;;;11.65;2.25;;;;;;;;;;4903074;29;20040;-79
2024/02/02 11:15:49;;;;;;;12.07;2.10;;;;;;;;;;4918054;29;20028;-79
2024/02/02 11:18:26;;;;;;;10.85;2.55;;;;;;;;;;4902556;29;20035;-79
2024/02/02 11:21:38;;;;;;;11.45;2.70;;;;;;;;;;4903127;29;20040;-80
2024/02/02 11:24:27;;;;;;;9.27;2.13;;;;;;;;;;4938177;29;20047;-80
2024/02/02 11:26:57;;;;;;;11.73;2.63;;;;;;;;;;4924061;29;20400;-78
2024/02/02 11:29:29;;;;;;;8.00;2.10;;;;;;;;;;4939525;29;20047;-79
2024/02/02 11:32:12;;;;;;;6.68;2.05;;;;;;;;;;4939087;29;20034;-79
2024/02/02 11:34:44;;;;;;;13.63;2.28;;;;;;;;;;4924152;29;20483;-80
2024/02/02 11:37:09;;;;;;;6.47;1.90;;;;;;;;;;4955632;29;20031;-78
2024/02/02 11:39:41;;;;;;;6.95;1.92;;;;;;;;;;4940539;29;20054;-77
2024/02/02 11:42:10;;;;;;;8.52;2.33;;;;;;;;;;4954847;29;20074;-80
2024/02/02 11:44:44;;;;;;;8.70;1.92;;;;;;;;;;4938225;29;20035;-80
2024/02/02 11:47:10;;;;;;;12.17;2.40;;;;;;;;;;4908276;29;20073;-79
2024/02/02 11:49:48;;;;;;;7.90;2.53;;;;;;;;;;4939116;29;20163;-80
2024/02/02 11:52:31;;;;;;;9.98;2.42;;;;;;;;;;4938200;29;20138;-80
2024/02/02 11:55:01;;;;;;;7.88;1.75;;;;;;;;;;4958202;28;20035;-80
2024/02/02 11:57:31;;;;;;;6.82;2.13;;;;;;;;;;4980271;28;20027;-79
2024/02/02 12:00:14;;;;;;;10.57;2.25;;;;;;;;;;4993903;28;20033;-79
2024/02/02 12:03:02;;;;;;;12.23;2.33;;;;;;;;;;4966554;28;20023;-80
2024/02/02 12:05:53;;;;;;;10.52;2.25;;;;;;;;;;4965577;28;20066;-80
2024/02/02 12:08:45;;;;;;;10.30;2.22;;;;;;;;;;4998064;28;20042;-80
2024/02/02 12:11:23;;;;;;;9.73;2.13;;;;;;;;;;4998183;28;20047;-78
2024/02/02 12:13:57;;;;;;;5.90;1.88;;;;;;;;;;4989567;28;20030;-79
2024/02/02 12:16:30;;;;;;;9.98;1.77;;;;;;;;;;4959811;28;20435;-78
2024/02/02 12:19:04;;;;;;;11.83;2.07;;;;;;;;;;4957894;28;20494;-79
2024/02/02 12:21:35;;;;;;;12.88;2.28;;;;;;;;;;4975285;28;20073;-80
2024/02/02 12:24:14;;;;;;;7.80;1.95;;;;;;;;;;4957829;28;20050;-80
2024/02/02 12:26:52;;;;;;;15.07;2.22;;;;;;;;;;4943623;28;20045;-81
2024/02/02 12:29:49;;;;;;;7.53;1.83;;;;;;;;;;4960357;28;20058;-79
2024/02/02 12:32:16;;;;;;;10.15;1.83;;;;;;;;;;4974148;28;20039;-81
2024/02/02 12:34:50;;;;;;;7.15;1.35;;;;;;;;;;4960246;28;20081;-80
2024/02/02 12:37:42;;;;;;;9.65;1.92;;;;;;;;;;4945878;28;20027;-80
2024/02/02 12:40:14;;;;;;;6.63;1.60;;;;;;;;;;4960480;28;20035;-80
2024/02/02 12:48:51;;;;;;;9.77;2.00;;;;;;;;;;5452217;23;20054;-79
2024/02/02 12:51:26;;;;;;;11.50;2.33;;;;;;;;;;4974422;28;20034;-80
2024/02/02 12:53:52;;;;;;;8.10;1.98;;;;;;;;;;4955746;28;20031;-80
2024/02/02 12:56:23;;;;;;;9.82;2.10;;;;;;;;;;4922957;29;20035;-79
2024/02/02 12:59:04;;;;;;;6.07;1.75;;;;;;;;;;4939531;29;20038;-80
2024/02/02 13:01:36;;;;;;;7.63;1.63;;;;;;;;;;4954528;29;20044;-79
2024/02/02 13:04:20;;;;;;;16.25;3.25;;;;;;;;;;4941257;29;20090;-79
2024/02/02 13:06:54;;;;;;;7.65;1.85;;;;;;;;;;4955137;29;20035;-80
2024/02/02 13:09:34;;;;;;;6.82;1.77;;;;;;;;;;4958791;28;20051;-79
2024/02/02 13:12:26;;;;;;;11.60;2.05;;;;;;;;;;4960526;29;20119;-80
2024/02/02 13:15:07;;;;;;;12.65;2.35;;;;;;;;;;4963014;28;20065;-77
2024/02/02 13:17:41;;;;;;;8.35;1.70;;;;;;;;;;4966832;28;20034;-78
2024/02/02 13:20:21;;;;;;;9.48;1.77;;;;;;;;;;4967104;28;20038;-78
2024/02/02 13:22:53;;;;;;;9.80;1.60;;;;;;;;;;4947785;29;20452;-79
2024/02/02 13:25:24;;;;;;;10.93;1.73;;;;;;;;;;4943771;29;20035;-80
2024/02/02 13:27:54;;;;;;;12.43;2.13;;;;;;;;;;4970542;28;20098;-80
2024/02/02 13:33:26;;;;;;;7.25;1.70;;;;;;;;;;4918738;29;20125;-83
2024/02/02 13:35:53;;;;;;;7.07;2.10;;;;;;;;;;4907163;29;20040;-83
2024/02/02 13:38:21;;;;;;;8.32;2.10;;;;;;;;;;4909810;29;20036;-84
2024/02/02 13:41:53;;;;;;;10.65;2.05;;;;;;;;;;4928856;29;20058;-83
2024/02/02 13:45:33;;;;;;;6.43;1.60;;;;;;;;;;4938630;29;20044;-83
2024/02/02 13:49:00;;;;;;;7.13;1.52;;;;;;;;;;4937986;29;20024;-83
2024/02/02 13:52:38;;;;;;;11.77;2.00;;;;;;;;;;4940780;29;20079;-84
2024/02/02 14:14:05;;;;;;;12.02;2.17;;;;;;;;;;5121770;23;20139;-84
2024/02/02 14:16:44;;;;;;;11.25;1.98;;;;;;;;;;4963238;28;20043;-84
2024/02/02 14:19:22;;;;;;;8.75;2.47;;;;;;;;;;4960903;28;20035;-83
2024/02/02 14:22:30;;;;;;;11.90;2.00;;;;;;;;;;4962376;28;20057;-84
2024/02/02 14:24:56;;;;;;;11.40;2.33;;;;;;;;;;4941146;28;20102;-83
2024/02/02 14:27:41;;;;;;;9.80;2.22;;;;;;;;;;4945919;29;20450;-83
2024/02/02 14:30:39;;;;;;;11.77;1.83;;;;;;;;;;4965027;28;20047;-83
2024/02/02 14:33:12;;;;;;;8.65;1.80;;;;;;;;;;4939410;29;20060;-83
2024/02/02 14:35:42;;;;;;;9.73;1.48;;;;;;;;;;4953122;29;20098;-83
2024/02/02 14:38:11;;;;;;;8.60;2.10;;;;;;;;;;4953263;29;20027;-84
2024/02/02 14:40:37;;;;;;;;;;;;;;;;;;4944235;28;20038;-84
2024/02/02 14:43:07;;;;;;;6.78;1.92;;;;;;;;;;4954371;28;19924;-83
2024/02/02 14:46:01;;;;;;;6.72;2.00;;;;;;;;;;4958302;28;20058;-83
2024/02/02 14:51:29;;;;;;;7.57;1.88;;;;;;;;;;4960715;28;20027;-83
2024/02/02 14:53:58;;;;;;;13.38;2.63;;;;;;;;;;4974205;28;20055;-83
2024/02/02 14:56:26;;;;;;;15.80;2.15;;;;;;;;;;4998731;28;20031;-83
2024/02/02 14:59:07;;;;;;;11.98;2.20;;;;;;;;;;4952136;29;20031;-82
2024/02/02 15:01:40;;;;;;;15.13;2.35;;;;;;;;;;4941934;29;20036;-82
2024/02/02 15:04:08;;;;;;;5.30;1.73;;;;;;;;;;4933170;29;20035;-83
2024/02/02 15:06:39;;;;;;;10.65;1.90;;;;;;;;;;4923504;29;20035;-83
2024/02/02 15:09:12;;;;;;;9.90;1.85;;;;;;;;;;4939867;29;20044;-82
2024/02/02 15:11:45;;;;;;;10.43;2.30;;;;;;;;;;4939172;28;20051;-82
2024/02/02 15:14:32;;;;;;;4.93;1.88;;;;;;;;;;4956302;29;20039;-83
2024/02/02 15:17:47;;;;;;;8.45;1.80;;;;;;;;;;4954504;29;20058;-82
2024/02/02 15:21:36;;;;;;;10.13;1.90;;;;;;;;;;4950174;28;20066;-82
2024/02/02 15:25:10;;;;;;;9.35;1.95;;;;;;;;;;4959355;29;20086;-82
2024/02/02 15:28:57;;;;;;;8.02;1.67;;;;;;;;;;4949712;29;20046;-83
2024/02/02 15:31:56;;;;;;;7.47;1.95;;;;;;;;;;4938725;28;20039;-83
2024/02/02 15:35:29;;;;;;;11.30;1.80;;;;;;;;;;5003864;23;20056;-83
2024/02/02 15:57:31;;;;;;;8.30;2.13;;;;;;;;;;4886830;29;20075;-83
2024/02/02 16:01:16;;;;;;;7.72;2.15;;;;;;;;;;4846706;29;20042;-82